sensor_id;sensor_type;location;lat;lon;timestamp;P1;durP1;ratioP1;P2;durP2;ratioP2
22468;SDS011;11401;50.792;4.352;2022-11-20T00:01:10;45.08;;;25.63;;
22468;SDS011;11401;50.792;4.352;2022-11-20T00:03:37;40.95;;;25.75;;
22468;SDS011;11401;50.792;4.352;2022-11-20T00:06:05;41.05;;;25.83;;
22468;SDS011;11401;50.792;4.352;2022-11-20T00:08:34;43.83;;;26.27;;
22468;SDS011;11401;50.792;4.352;2022-11-20T00:11:12;42.05;;;25.13;;
22468;SDS011;11401;50.792;4.352;2022-11-20T00:13:42;49.67;;;26.58;;
22468;SDS011;11401;50.792;4.352;2022-11-20T00:16:11;45.70;;;26.35;;
22468;SDS011;11401;50.792;4.352;2022-11-20T00:18:41;46.85;;;25.77;;
22468;SDS011;11401;50.792;4.352;2022-11-20T00:21:15;42.25;;;26.25;;
22468;SDS011;11401;50.792;4.352;2022-11-20T00:23:48;38.55;;;24.35;;
22468;SDS011;11401;50.792;4.352;2022-11-20T00:26:16;40.50;;;23.80;;
22468;SDS011;11401;50.792;4.352;2022-11-20T00:28:48;40.47;;;24.25;;
22468;SDS011;11401;50.792;4.352;2022-11-20T00:31:25;42.05;;;26.48;;
22468;SDS011;11401;50.792;4.352;2022-11-20T00:33:53;41.30;;;24.40;;
22468;SDS011;11401;50.792;4.352;2022-11-20T00:36:21;39.80;;;23.20;;
22468;SDS011;11401;50.792;4.352;2022-11-20T00:38:51;38.35;;;23.10;;
22468;SDS011;11401;50.792;4.352;2022-11-20T00:41:19;38.08;;;23.65;;
22468;SDS011;11401;50.792;4.352;2022-11-20T00:43:47;39.72;;;22.90;;
22468;SDS011;11401;50.792;4.352;2022-11-20T00:46:14;35.53;;;22.95;;
22468;SDS011;11401;50.792;4.352;2022-11-20T00:48:43;36.00;;;23.38;;
22468;SDS011;11401;50.792;4.352;2022-11-20T00:51:11;33.63;;;24.00;;
22468;SDS011;11401;50.792;4.352;2022-11-20T00:53:39;36.08;;;22.73;;
22468;SDS011;11401;50.792;4.352;2022-11-20T00:56:07;34.70;;;22.35;;
22468;SDS011;11401;50.792;4.352;2022-11-20T00:58:37;33.95;;;22.27;;
22468;SDS011;11401;50.792;4.352;2022-11-20T01:01:06;35.85;;;22.30;;
22468;SDS011;11401;50.792;4.352;2022-11-20T01:03:39;32.67;;;21.80;;
22468;SDS011;11401;50.792;4.352;2022-11-20T01:06:23;33.88;;;20.75;;
22468;SDS011;11401;50.792;4.352;2022-11-20T01:08:56;36.08;;;21.95;;
22468;SDS011;11401;50.792;4.352;2022-11-20T01:11:26;32.67;;;21.48;;
22468;SDS011;11401;50.792;4.352;2022-11-20T01:13:54;29.58;;;20.58;;
22468;SDS011;11401;50.792;4.352;2022-11-20T01:16:27;30.17;;;20.85;;
22468;SDS011;11401;50.792;4.352;2022-11-20T01:18:56;33.80;;;21.10;;
22468;SDS011;11401;50.792;4.352;2022-11-20T01:21:29;33.70;;;22.05;;
22468;SDS011;11401;50.792;4.352;2022-11-20T01:23:58;30.42;;;21.13;;
22468;SDS011;11401;50.792;4.352;2022-11-20T01:26:28;31.45;;;21.00;;
22468;SDS011;11401;50.792;4.352;2022-11-20T01:28:57;41.65;;;22.15;;
22468;SDS011;11401;50.792;4.352;2022-11-20T01:31:26;35.35;;;21.13;;
22468;SDS011;11401;50.792;4.352;2022-11-20T01:33:56;33.03;;;21.45;;
22468;SDS011;11401;50.792;4.352;2022-11-20T01:36:25;31.17;;;21.38;;
22468;SDS011;11401;50.792;4.352;2022-11-20T01:38:54;33.65;;;22.27;;
22468;SDS011;11401;50.792;4.352;2022-11-20T01:41:23;30.80;;;21.33;;
22468;SDS011;11401;50.792;4.352;2022-11-20T01:44:10;33.53;;;19.30;;
22468;SDS011;11401;50.792;4.352;2022-11-20T01:46:49;31.83;;;20.73;;
22468;SDS011;11401;50.792;4.352;2022-11-20T01:52:01;33.47;;;19.90;;
22468;SDS011;11401;50.792;4.352;2022-11-20T01:54:35;33.65;;;21.60;;
22468;SDS011;11401;50.792;4.352;2022-11-20T01:57:06;37.03;;;21.88;;
22468;SDS011;11401;50.792;4.352;2022-11-20T01:59:38;28.88;;;19.73;;
22468;SDS011;11401;50.792;4.352;2022-11-20T02:02:09;30.05;;;20.35;;
22468;SDS011;11401;50.792;4.352;2022-11-20T02:04:37;33.15;;;21.10;;
22468;SDS011;11401;50.792;4.352;2022-11-20T02:07:04;30.42;;;19.85;;
22468;SDS011;11401;50.792;4.352;2022-11-20T02:09:31;32.80;;;20.35;;
22468;SDS011;11401;50.792;4.352;2022-11-20T02:11:58;32.05;;;20.45;;
22468;SDS011;11401;50.792;4.352;2022-11-20T02:14:25;31.25;;;21.33;;
22468;SDS011;11401;50.792;4.352;2022-11-20T02:16:53;32.90;;;21.02;;
22468;SDS011;11401;50.792;4.352;2022-11-20T02:19:30;34.97;;;21.73;;
22468;SDS011;11401;50.792;4.352;2022-11-20T02:24:28;32.58;;;21.73;;
22468;SDS011;11401;50.792;4.352;2022-11-20T02:27:11;37.85;;;21.52;;
22468;SDS011;11401;50.792;4.352;2022-11-20T02:29:48;31.20;;;19.52;;
22468;SDS011;11401;50.792;4.352;2022-11-20T02:34:56;31.77;;;20.27;;
22468;SDS011;11401;50.792;4.352;2022-11-20T02:37:23;33.50;;;20.13;;
22468;SDS011;11401;50.792;4.352;2022-11-20T02:39:58;32.53;;;21.02;;
22468;SDS011;11401;50.792;4.352;2022-11-20T02:42:25;35.13;;;20.65;;
22468;SDS011;11401;50.792;4.352;2022-11-20T02:44:52;32.13;;;19.92;;
22468;SDS011;11401;50.792;4.352;2022-11-20T02:47:19;35.35;;;21.27;;
22468;SDS011;11401;50.792;4.352;2022-11-20T02:49:47;29.50;;;19.60;;
22468;SDS011;11401;50.792;4.352;2022-11-20T02:52:13;30.40;;;19.83;;
22468;SDS011;11401;50.792;4.352;2022-11-20T02:54:40;29.33;;;19.77;;
22468;SDS011;11401;50.792;4.352;2022-11-20T02:57:07;31.20;;;18.50;;
22468;SDS011;11401;50.792;4.352;2022-11-20T02:59:34;33.38;;;18.95;;
22468;SDS011;11401;50.792;4.352;2022-11-20T03:02:01;31.02;;;19.63;;
22468;SDS011;11401;50.792;4.352;2022-11-20T03:04:28;29.02;;;19.02;;
22468;SDS011;11401;50.792;4.352;2022-11-20T03:06:55;27.65;;;19.60;;
22468;SDS011;11401;50.792;4.352;2022-11-20T03:09:22;29.50;;;19.13;;
22468;SDS011;11401;50.792;4.352;2022-11-20T03:11:49;28.92;;;19.02;;
22468;SDS011;11401;50.792;4.352;2022-11-20T03:14:16;29.90;;;19.85;;
22468;SDS011;11401;50.792;4.352;2022-11-20T03:16:43;31.52;;;19.40;;
22468;SDS011;11401;50.792;4.352;2022-11-20T03:19:10;31.45;;;18.95;;
22468;SDS011;11401;50.792;4.352;2022-11-20T03:21:38;29.77;;;17.83;;
22468;SDS011;11401;50.792;4.352;2022-11-20T03:24:05;29.38;;;18.85;;
22468;SDS011;11401;50.792;4.352;2022-11-20T03:26:33;29.15;;;18.40;;
22468;SDS011;11401;50.792;4.352;2022-11-20T03:29:01;30.13;;;18.45;;
22468;SDS011;11401;50.792;4.352;2022-11-20T03:31:31;31.55;;;19.33;;
22468;SDS011;11401;50.792;4.352;2022-11-20T03:34:03;34.25;;;20.30;;
22468;SDS011;11401;50.792;4.352;2022-11-20T03:36:30;27.85;;;17.85;;
22468;SDS011;11401;50.792;4.352;2022-11-20T03:38:57;28.25;;;18.40;;
22468;SDS011;11401;50.792;4.352;2022-11-20T03:41:28;31.48;;;18.92;;
22468;SDS011;11401;50.792;4.352;2022-11-20T03:44:00;30.48;;;18.77;;
22468;SDS011;11401;50.792;4.352;2022-11-20T03:46:29;29.25;;;17.45;;
22468;SDS011;11401;50.792;4.352;2022-11-20T03:48:57;29.10;;;17.88;;
22468;SDS011;11401;50.792;4.352;2022-11-20T03:51:31;27.17;;;16.63;;
22468;SDS011;11401;50.792;4.352;2022-11-20T03:54:00;27.10;;;18.23;;
22468;SDS011;11401;50.792;4.352;2022-11-20T03:56:29;25.17;;;16.98;;
22468;SDS011;11401;50.792;4.352;2022-11-20T03:58:57;27.75;;;17.33;;
22468;SDS011;11401;50.792;4.352;2022-11-20T04:01:25;27.02;;;17.38;;
22468;SDS011;11401;50.792;4.352;2022-11-20T04:03:54;28.05;;;18.10;;
22468;SDS011;11401;50.792;4.352;2022-11-20T04:06:23;28.63;;;17.85;;
22468;SDS011;11401;50.792;4.352;2022-11-20T04:08:53;27.60;;;17.77;;
22468;SDS011;11401;50.792;4.352;2022-11-20T04:11:22;30.77;;;18.75;;
22468;SDS011;11401;50.792;4.352;2022-11-20T04:13:52;26.60;;;16.95;;
22468;SDS011;11401;50.792;4.352;2022-11-20T04:16:29;31.05;;;18.35;;
22468;SDS011;11401;50.792;4.352;2022-11-20T04:18:58;27.30;;;18.25;;
22468;SDS011;11401;50.792;4.352;2022-11-20T04:21:26;31.17;;;18.55;;
22468;SDS011;11401;50.792;4.352;2022-11-20T04:23:54;32.13;;;18.60;;
22468;SDS011;11401;50.792;4.352;2022-11-20T04:26:22;33.58;;;19.80;;
22468;SDS011;11401;50.792;4.352;2022-11-20T04:28:51;30.60;;;18.35;;
22468;SDS011;11401;50.792;4.352;2022-11-20T04:31:19;33.88;;;19.10;;
22468;SDS011;11401;50.792;4.352;2022-11-20T04:33:47;29.95;;;17.85;;
22468;SDS011;11401;50.792;4.352;2022-11-20T04:36:16;35.40;;;19.48;;
22468;SDS011;11401;50.792;4.352;2022-11-20T04:38:46;34.40;;;19.40;;
22468;SDS011;11401;50.792;4.352;2022-11-20T04:41:22;33.10;;;19.48;;
22468;SDS011;11401;50.792;4.352;2022-11-20T04:43:55;33.45;;;19.73;;
22468;SDS011;11401;50.792;4.352;2022-11-20T04:46:34;34.17;;;18.90;;
22468;SDS011;11401;50.792;4.352;2022-11-20T04:49:02;30.88;;;18.50;;
22468;SDS011;11401;50.792;4.352;2022-11-20T04:51:30;31.95;;;19.08;;
22468;SDS011;11401;50.792;4.352;2022-11-20T04:53:57;36.72;;;20.02;;
22468;SDS011;11401;50.792;4.352;2022-11-20T04:56:24;33.88;;;19.10;;
22468;SDS011;11401;50.792;4.352;2022-11-20T04:58:51;36.20;;;19.92;;
22468;SDS011;11401;50.792;4.352;2022-11-20T05:01:19;36.20;;;20.17;;
22468;SDS011;11401;50.792;4.352;2022-11-20T05:03:49;34.90;;;19.30;;
22468;SDS011;11401;50.792;4.352;2022-11-20T05:06:16;39.28;;;20.25;;
22468;SDS011;11401;50.792;4.352;2022-11-20T05:08:45;39.67;;;21.08;;
22468;SDS011;11401;50.792;4.352;2022-11-20T05:11:13;35.05;;;19.55;;
22468;SDS011;11401;50.792;4.352;2022-11-20T05:13:41;37.22;;;19.63;;
22468;SDS011;11401;50.792;4.352;2022-11-20T05:16:09;33.45;;;20.13;;
22468;SDS011;11401;50.792;4.352;2022-11-20T05:18:41;37.85;;;20.65;;
22468;SDS011;11401;50.792;4.352;2022-11-20T05:21:09;35.80;;;20.25;;
22468;SDS011;11401;50.792;4.352;2022-11-20T05:23:36;36.15;;;21.08;;
22468;SDS011;11401;50.792;4.352;2022-11-20T05:26:05;38.95;;;20.83;;
22468;SDS011;11401;50.792;4.352;2022-11-20T05:28:33;36.28;;;19.83;;
22468;SDS011;11401;50.792;4.352;2022-11-20T05:31:07;40.63;;;22.70;;
22468;SDS011;11401;50.792;4.352;2022-11-20T05:33:36;38.80;;;21.23;;
22468;SDS011;11401;50.792;4.352;2022-11-20T05:36:05;34.95;;;20.65;;
22468;SDS011;11401;50.792;4.352;2022-11-20T05:38:33;40.85;;;21.88;;
22468;SDS011;11401;50.792;4.352;2022-11-20T05:41:19;45.40;;;22.42;;
22468;SDS011;11401;50.792;4.352;2022-11-20T05:43:47;41.35;;;21.95;;
22468;SDS011;11401;50.792;4.352;2022-11-20T05:46:16;40.10;;;21.73;;
22468;SDS011;11401;50.792;4.352;2022-11-20T05:48:50;37.25;;;20.45;;
22468;SDS011;11401;50.792;4.352;2022-11-20T05:51:17;38.45;;;21.48;;
22468;SDS011;11401;50.792;4.352;2022-11-20T05:53:45;40.35;;;22.10;;
22468;SDS011;11401;50.792;4.352;2022-11-20T05:56:17;43.15;;;23.27;;
22468;SDS011;11401;50.792;4.352;2022-11-20T05:58:46;40.80;;;22.25;;
22468;SDS011;11401;50.792;4.352;2022-11-20T06:01:16;37.88;;;20.65;;
22468;SDS011;11401;50.792;4.352;2022-11-20T06:03:43;44.25;;;22.60;;
22468;SDS011;11401;50.792;4.352;2022-11-20T06:06:14;39.97;;;21.42;;
22468;SDS011;11401;50.792;4.352;2022-11-20T06:08:42;40.65;;;22.00;;
22468;SDS011;11401;50.792;4.352;2022-11-20T06:11:10;46.58;;;22.45;;
22468;SDS011;11401;50.792;4.352;2022-11-20T06:13:39;44.10;;;23.20;;
22468;SDS011;11401;50.792;4.352;2022-11-20T06:16:08;44.63;;;23.10;;
22468;SDS011;11401;50.792;4.352;2022-11-20T06:18:35;41.53;;;22.77;;
22468;SDS011;11401;50.792;4.352;2022-11-20T06:21:12;39.85;;;21.38;;
22468;SDS011;11401;50.792;4.352;2022-11-20T06:23:44;41.05;;;20.95;;
22468;SDS011;11401;50.792;4.352;2022-11-20T06:26:19;46.30;;;23.08;;
22468;SDS011;11401;50.792;4.352;2022-11-20T06:28:50;44.90;;;22.10;;
22468;SDS011;11401;50.792;4.352;2022-11-20T06:31:19;42.67;;;21.13;;
22468;SDS011;11401;50.792;4.352;2022-11-20T06:33:47;41.13;;;21.48;;
22468;SDS011;11401;50.792;4.352;2022-11-20T06:36:15;43.50;;;22.27;;
22468;SDS011;11401;50.792;4.352;2022-11-20T06:38:44;39.83;;;21.52;;
22468;SDS011;11401;50.792;4.352;2022-11-20T06:41:13;40.22;;;20.98;;
22468;SDS011;11401;50.792;4.352;2022-11-20T06:43:44;40.80;;;20.92;;
22468;SDS011;11401;50.792;4.352;2022-11-20T06:46:11;37.30;;;21.30;;
22468;SDS011;11401;50.792;4.352;2022-11-20T06:48:39;36.90;;;19.92;;
22468;SDS011;11401;50.792;4.352;2022-11-20T06:51:07;42.72;;;22.92;;
22468;SDS011;11401;50.792;4.352;2022-11-20T06:53:34;34.33;;;19.92;;
22468;SDS011;11401;50.792;4.352;2022-11-20T06:56:02;38.83;;;20.85;;
22468;SDS011;11401;50.792;4.352;2022-11-20T06:58:30;32.42;;;19.40;;
22468;SDS011;11401;50.792;4.352;2022-11-20T07:00:59;36.72;;;20.30;;
22468;SDS011;11401;50.792;4.352;2022-11-20T07:03:26;37.72;;;19.65;;
22468;SDS011;11401;50.792;4.352;2022-11-20T07:05:54;35.65;;;19.58;;
22468;SDS011;11401;50.792;4.352;2022-11-20T07:08:22;37.50;;;20.08;;
22468;SDS011;11401;50.792;4.352;2022-11-20T07:10:49;33.15;;;19.50;;
22468;SDS011;11401;50.792;4.352;2022-11-20T07:13:16;32.70;;;18.77;;
22468;SDS011;11401;50.792;4.352;2022-11-20T07:15:43;32.58;;;19.27;;
22468;SDS011;11401;50.792;4.352;2022-11-20T07:18:10;37.80;;;20.13;;
22468;SDS011;11401;50.792;4.352;2022-11-20T07:20:37;31.10;;;19.00;;
22468;SDS011;11401;50.792;4.352;2022-11-20T07:23:04;33.30;;;18.63;;
22468;SDS011;11401;50.792;4.352;2022-11-20T07:25:31;30.80;;;18.05;;
22468;SDS011;11401;50.792;4.352;2022-11-20T07:27:59;38.22;;;19.60;;
22468;SDS011;11401;50.792;4.352;2022-11-20T07:30:27;31.10;;;18.50;;
22468;SDS011;11401;50.792;4.352;2022-11-20T07:32:54;34.20;;;18.73;;
22468;SDS011;11401;50.792;4.352;2022-11-20T07:35:23;32.15;;;18.73;;
22468;SDS011;11401;50.792;4.352;2022-11-20T07:37:50;38.75;;;19.08;;
22468;SDS011;11401;50.792;4.352;2022-11-20T07:40:17;33.65;;;19.25;;
22468;SDS011;11401;50.792;4.352;2022-11-20T07:42:49;35.10;;;19.42;;
22468;SDS011;11401;50.792;4.352;2022-11-20T07:45:20;33.17;;;18.55;;
22468;SDS011;11401;50.792;4.352;2022-11-20T07:47:49;34.55;;;18.33;;
22468;SDS011;11401;50.792;4.352;2022-11-20T07:50:16;34.22;;;18.55;;
22468;SDS011;11401;50.792;4.352;2022-11-20T07:52:43;33.45;;;19.60;;
22468;SDS011;11401;50.792;4.352;2022-11-20T07:55:10;31.98;;;18.15;;
22468;SDS011;11401;50.792;4.352;2022-11-20T07:57:37;31.50;;;18.65;;
22468;SDS011;11401;50.792;4.352;2022-11-20T08:00:05;34.75;;;19.23;;
22468;SDS011;11401;50.792;4.352;2022-11-20T08:02:40;33.83;;;18.27;;
22468;SDS011;11401;50.792;4.352;2022-11-20T08:05:08;34.20;;;18.90;;
22468;SDS011;11401;50.792;4.352;2022-11-20T08:07:37;36.20;;;19.55;;
22468;SDS011;11401;50.792;4.352;2022-11-20T08:10:05;29.63;;;17.73;;
22468;SDS011;11401;50.792;4.352;2022-11-20T08:12:33;34.75;;;18.73;;
22468;SDS011;11401;50.792;4.352;2022-11-20T08:15:18;33.25;;;18.40;;
22468;SDS011;11401;50.792;4.352;2022-11-20T08:17:45;36.22;;;19.00;;
22468;SDS011;11401;50.792;4.352;2022-11-20T08:20:32;29.60;;;18.02;;
22468;SDS011;11401;50.792;4.352;2022-11-20T08:23:01;36.35;;;18.83;;
22468;SDS011;11401;50.792;4.352;2022-11-20T08:25:29;34.70;;;17.85;;
22468;SDS011;11401;50.792;4.352;2022-11-20T08:28:01;34.00;;;17.83;;
22468;SDS011;11401;50.792;4.352;2022-11-20T08:30:45;35.03;;;18.98;;
22468;SDS011;11401;50.792;4.352;2022-11-20T08:33:12;32.88;;;18.67;;
22468;SDS011;11401;50.792;4.352;2022-11-20T08:35:39;36.38;;;19.48;;
22468;SDS011;11401;50.792;4.352;2022-11-20T08:38:08;36.67;;;19.50;;
22468;SDS011;11401;50.792;4.352;2022-11-20T08:40:35;30.00;;;17.45;;
22468;SDS011;11401;50.792;4.352;2022-11-20T08:43:02;35.50;;;17.55;;
22468;SDS011;11401;50.792;4.352;2022-11-20T08:45:29;32.78;;;17.70;;
22468;SDS011;11401;50.792;4.352;2022-11-20T08:48:00;33.33;;;18.50;;
22468;SDS011;11401;50.792;4.352;2022-11-20T08:50:28;34.45;;;17.48;;
22468;SDS011;11401;50.792;4.352;2022-11-20T08:53:04;33.13;;;18.23;;
22468;SDS011;11401;50.792;4.352;2022-11-20T08:55:31;32.08;;;17.13;;
22468;SDS011;11401;50.792;4.352;2022-11-20T08:57:58;32.45;;;17.67;;
22468;SDS011;11401;50.792;4.352;2022-11-20T09:00:29;29.73;;;17.08;;
22468;SDS011;11401;50.792;4.352;2022-11-20T09:02:56;30.55;;;16.73;;
22468;SDS011;11401;50.792;4.352;2022-11-20T09:05:24;32.08;;;17.38;;
22468;SDS011;11401;50.792;4.352;2022-11-20T09:07:51;30.75;;;17.25;;
22468;SDS011;11401;50.792;4.352;2022-11-20T09:10:22;32.95;;;17.42;;
22468;SDS011;11401;50.792;4.352;2022-11-20T09:12:50;33.05;;;17.77;;
22468;SDS011;11401;50.792;4.352;2022-11-20T09:15:18;28.25;;;16.13;;
22468;SDS011;11401;50.792;4.352;2022-11-20T09:20:22;27.92;;;17.13;;
22468;SDS011;11401;50.792;4.352;2022-11-20T09:22:49;29.63;;;16.88;;
22468;SDS011;11401;50.792;4.352;2022-11-20T09:25:16;26.85;;;16.23;;
22468;SDS011;11401;50.792;4.352;2022-11-20T09:27:44;27.10;;;15.93;;
22468;SDS011;11401;50.792;4.352;2022-11-20T09:30:15;29.65;;;14.68;;
22468;SDS011;11401;50.792;4.352;2022-11-20T09:32:43;29.80;;;14.85;;
22468;SDS011;11401;50.792;4.352;2022-11-20T09:35:09;25.10;;;14.77;;
22468;SDS011;11401;50.792;4.352;2022-11-20T09:37:37;25.65;;;15.10;;
22468;SDS011;11401;50.792;4.352;2022-11-20T09:40:04;27.23;;;13.75;;
22468;SDS011;11401;50.792;4.352;2022-11-20T09:42:33;24.60;;;14.68;;
22468;SDS011;11401;50.792;4.352;2022-11-20T09:45:10;21.63;;;12.93;;
22468;SDS011;11401;50.792;4.352;2022-11-20T09:50:43;22.98;;;12.20;;
22468;SDS011;11401;50.792;4.352;2022-11-20T09:56:01;17.58;;;11.10;;
22468;SDS011;11401;50.792;4.352;2022-11-20T09:58:32;18.08;;;10.80;;
22468;SDS011;11401;50.792;4.352;2022-11-20T10:01:18;18.17;;;10.80;;
22468;SDS011;11401;50.792;4.352;2022-11-20T10:06:20;13.93;;;9.48;;
22468;SDS011;11401;50.792;4.352;2022-11-20T10:09:06;14.90;;;9.10;;
22468;SDS011;11401;50.792;4.352;2022-11-20T10:16:49;16.20;;;8.50;;
22468;SDS011;11401;50.792;4.352;2022-11-20T10:19:38;23.85;;;9.70;;
22468;SDS011;11401;50.792;4.352;2022-11-20T10:25:19;19.92;;;8.60;;
22468;SDS011;11401;50.792;4.352;2022-11-20T10:30:23;24.35;;;7.57;;
22468;SDS011;11401;50.792;4.352;2022-11-20T10:33:05;20.17;;;6.63;;
22468;SDS011;11401;50.792;4.352;2022-11-20T10:38:36;10.68;;;5.95;;
22468;SDS011;11401;50.792;4.352;2022-11-20T10:41:07;21.02;;;6.97;;
22468;SDS011;11401;50.792;4.352;2022-11-20T10:44:14;11.57;;;5.60;;
22468;SDS011;11401;50.792;4.352;2022-11-20T10:47:22;10.65;;;5.15;;
22468;SDS011;11401;50.792;4.352;2022-11-20T10:49:51;11.60;;;5.00;;
22468;SDS011;11401;50.792;4.352;2022-11-20T11:00:37;7.65;;;4.20;;
22468;SDS011;11401;50.792;4.352;2022-11-20T11:03:13;12.57;;;4.32;;
22468;SDS011;11401;50.792;4.352;2022-11-20T11:05:51;9.43;;;3.78;;
22468;SDS011;11401;50.792;4.352;2022-11-20T11:08:24;8.48;;;4.07;;
22468;SDS011;11401;50.792;4.352;2022-11-20T11:10:59;10.80;;;3.90;;
22468;SDS011;11401;50.792;4.352;2022-11-20T11:13:30;9.13;;;3.50;;
22468;SDS011;11401;50.792;4.352;2022-11-20T11:15:57;6.20;;;3.30;;
22468;SDS011;11401;50.792;4.352;2022-11-20T11:20:59;9.05;;;2.80;;
22468;SDS011;11401;50.792;4.352;2022-11-20T11:23:35;6.43;;;3.45;;
22468;SDS011;11401;50.792;4.352;2022-11-20T11:26:17;7.70;;;3.35;;
22468;SDS011;11401;50.792;4.352;2022-11-20T11:29:20;7.28;;;3.30;;
22468;SDS011;11401;50.792;4.352;2022-11-20T11:31:43;6.35;;;3.53;;
22468;SDS011;11401;50.792;4.352;2022-11-20T11:34:14;5.88;;;3.75;;
22468;SDS011;11401;50.792;4.352;2022-11-20T11:36:49;5.45;;;2.85;;
22468;SDS011;11401;50.792;4.352;2022-11-20T11:39:30;7.97;;;3.30;;
22468;SDS011;11401;50.792;4.352;2022-11-20T11:41:59;7.10;;;2.92;;
22468;SDS011;11401;50.792;4.352;2022-11-20T11:44:28;5.40;;;2.70;;
22468;SDS011;11401;50.792;4.352;2022-11-20T11:50:13;6.82;;;2.58;;
22468;SDS011;11401;50.792;4.352;2022-11-20T11:52:56;7.93;;;2.78;;
22468;SDS011;11401;50.792;4.352;2022-11-20T12:06:42;23.85;;;3.55;;
22468;SDS011;11401;50.792;4.352;2022-11-20T12:09:11;9.52;;;3.50;;
22468;SDS011;11401;50.792;4.352;2022-11-20T12:11:43;9.38;;;2.83;;
22468;SDS011;11401;50.792;4.352;2022-11-20T12:14:22;8.02;;;3.10;;
22468;SDS011;11401;50.792;4.352;2022-11-20T12:16:57;14.38;;;2.95;;
22468;SDS011;11401;50.792;4.352;2022-11-20T12:19:26;9.35;;;3.72;;
22468;SDS011;11401;50.792;4.352;2022-11-20T12:21:59;30.00;;;5.57;;
22468;SDS011;11401;50.792;4.352;2022-11-20T12:30:35;64.30;;;8.63;;
22468;SDS011;11401;50.792;4.352;2022-11-20T12:33:18;29.05;;;5.20;;
22468;SDS011;11401;50.792;4.352;2022-11-20T12:36:07;25.20;;;5.03;;
22468;SDS011;11401;50.792;4.352;2022-11-20T12:44:57;25.27;;;5.75;;
22468;SDS011;11401;50.792;4.352;2022-11-20T12:48:06;15.70;;;4.18;;
22468;SDS011;11401;50.792;4.352;2022-11-20T13:07:49;12.90;;;3.63;;
22468;SDS011;11401;50.792;4.352;2022-11-20T13:10:31;9.23;;;3.30;;
22468;SDS011;11401;50.792;4.352;2022-11-20T13:13:01;10.65;;;2.92;;
22468;SDS011;11401;50.792;4.352;2022-11-20T13:18:15;4.40;;;2.53;;
22468;SDS011;11401;50.792;4.352;2022-11-20T13:20:43;5.53;;;2.55;;
22468;SDS011;11401;50.792;4.352;2022-11-20T13:23:11;2.70;;;2.03;;
22468;SDS011;11401;50.792;4.352;2022-11-20T13:31:48;3.17;;;2.38;;
22468;SDS011;11401;50.792;4.352;2022-11-20T13:34:25;3.17;;;2.38;;
22468;SDS011;11401;50.792;4.352;2022-11-20T13:36:54;4.93;;;2.50;;
22468;SDS011;11401;50.792;4.352;2022-11-20T13:39:26;5.65;;;2.70;;
22468;SDS011;11401;50.792;4.352;2022-11-20T13:41:58;3.35;;;2.33;;
22468;SDS011;11401;50.792;4.352;2022-11-20T13:44:47;2.72;;;1.90;;
22468;SDS011;11401;50.792;4.352;2022-11-20T13:47:21;3.40;;;2.10;;
22468;SDS011;11401;50.792;4.352;2022-11-20T13:49:51;3.90;;;1.75;;
22468;SDS011;11401;50.792;4.352;2022-11-20T13:54:52;3.83;;;1.98;;
22468;SDS011;11401;50.792;4.352;2022-11-20T13:57:32;2.00;;;1.80;;
22468;SDS011;11401;50.792;4.352;2022-11-20T14:02:42;5.15;;;2.00;;
22468;SDS011;11401;50.792;4.352;2022-11-20T14:05:17;1.58;;;1.48;;
22468;SDS011;11401;50.792;4.352;2022-11-20T14:07:48;1.95;;;1.85;;
22468;SDS011;11401;50.792;4.352;2022-11-20T14:10:27;2.15;;;1.65;;
22468;SDS011;11401;50.792;4.352;2022-11-20T14:12:57;3.25;;;1.38;;
22468;SDS011;11401;50.792;4.352;2022-11-20T14:15:29;1.48;;;1.38;;
22468;SDS011;11401;50.792;4.352;2022-11-20T14:18:00;2.50;;;1.67;;
22468;SDS011;11401;50.792;4.352;2022-11-20T14:20:38;1.42;;;1.33;;
22468;SDS011;11401;50.792;4.352;2022-11-20T14:23:08;1.70;;;1.60;;
22468;SDS011;11401;50.792;4.352;2022-11-20T14:25:36;2.10;;;1.70;;
22468;SDS011;11401;50.792;4.352;2022-11-20T14:28:11;2.20;;;2.00;;
22468;SDS011;11401;50.792;4.352;2022-11-20T14:30:51;1.83;;;1.73;;
22468;SDS011;11401;50.792;4.352;2022-11-20T14:33:18;1.90;;;1.50;;
22468;SDS011;11401;50.792;4.352;2022-11-20T14:35:47;3.13;;;1.70;;
22468;SDS011;11401;50.792;4.352;2022-11-20T14:38:21;2.97;;;1.98;;
22468;SDS011;11401;50.792;4.352;2022-11-20T14:40:51;1.85;;;1.67;;
22468;SDS011;11401;50.792;4.352;2022-11-20T14:45:57;1.95;;;1.85;;
22468;SDS011;11401;50.792;4.352;2022-11-20T14:48:34;2.55;;;1.83;;
22468;SDS011;11401;50.792;4.352;2022-11-20T14:51:05;2.35;;;1.95;;
22468;SDS011;11401;50.792;4.352;2022-11-20T14:53:32;2.90;;;1.98;;
22468;SDS011;11401;50.792;4.352;2022-11-20T14:56:00;3.45;;;2.30;;
22468;SDS011;11401;50.792;4.352;2022-11-20T14:58:32;2.30;;;1.95;;
22468;SDS011;11401;50.792;4.352;2022-11-20T15:01:06;2.15;;;1.67;;
22468;SDS011;11401;50.792;4.352;2022-11-20T15:03:39;2.80;;;2.22;;
22468;SDS011;11401;50.792;4.352;2022-11-20T15:06:09;3.83;;;2.22;;
22468;SDS011;11401;50.792;4.352;2022-11-20T15:08:38;3.58;;;2.70;;
22468;SDS011;11401;50.792;4.352;2022-11-20T15:11:15;2.70;;;2.40;;
22468;SDS011;11401;50.792;4.352;2022-11-20T15:13:45;3.55;;;2.20;;
22468;SDS011;11401;50.792;4.352;2022-11-20T15:16:17;2.17;;;1.98;;
22468;SDS011;11401;50.792;4.352;2022-11-20T15:18:46;3.08;;;2.28;;
22468;SDS011;11401;50.792;4.352;2022-11-20T15:21:14;2.95;;;2.40;;
22468;SDS011;11401;50.792;4.352;2022-11-20T15:23:43;2.53;;;2.10;;
22468;SDS011;11401;50.792;4.352;2022-11-20T15:26:11;3.30;;;2.42;;
22468;SDS011;11401;50.792;4.352;2022-11-20T15:28:46;4.60;;;2.50;;
22468;SDS011;11401;50.792;4.352;2022-11-20T15:31:15;3.70;;;2.22;;
22468;SDS011;11401;50.792;4.352;2022-11-20T15:33:43;2.60;;;2.40;;
22468;SDS011;11401;50.792;4.352;2022-11-20T15:36:10;3.95;;;2.47;;
22468;SDS011;11401;50.792;4.352;2022-11-20T15:38:38;2.90;;;2.67;;
22468;SDS011;11401;50.792;4.352;2022-11-20T15:41:05;2.83;;;2.30;;
22468;SDS011;11401;50.792;4.352;2022-11-20T15:43:32;4.47;;;2.17;;
22468;SDS011;11401;50.792;4.352;2022-11-20T15:46:00;2.50;;;2.30;;
22468;SDS011;11401;50.792;4.352;2022-11-20T15:48:48;3.17;;;2.78;;
22468;SDS011;11401;50.792;4.352;2022-11-20T15:51:25;6.32;;;2.40;;
22468;SDS011;11401;50.792;4.352;2022-11-20T15:54:12;4.57;;;2.30;;
22468;SDS011;11401;50.792;4.352;2022-11-20T15:56:41;4.18;;;2.50;;
22468;SDS011;11401;50.792;4.352;2022-11-20T15:59:08;5.15;;;2.28;;
22468;SDS011;11401;50.792;4.352;2022-11-20T16:01:35;4.90;;;2.45;;
22468;SDS011;11401;50.792;4.352;2022-11-20T16:04:04;5.75;;;2.42;;
22468;SDS011;11401;50.792;4.352;2022-11-20T16:06:31;4.13;;;2.67;;
22468;SDS011;11401;50.792;4.352;2022-11-20T16:08:58;6.18;;;2.33;;
22468;SDS011;11401;50.792;4.352;2022-11-20T16:11:25;4.20;;;2.45;;
22468;SDS011;11401;50.792;4.352;2022-11-20T16:13:52;3.63;;;2.78;;
22468;SDS011;11401;50.792;4.352;2022-11-20T16:16:38;4.47;;;2.72;;
22468;SDS011;11401;50.792;4.352;2022-11-20T16:19:09;6.38;;;2.60;;
22468;SDS011;11401;50.792;4.352;2022-11-20T16:21:38;5.43;;;2.78;;
22468;SDS011;11401;50.792;4.352;2022-11-20T16:24:08;6.00;;;2.97;;
22468;SDS011;11401;50.792;4.352;2022-11-20T16:26:37;5.82;;;2.92;;
22468;SDS011;11401;50.792;4.352;2022-11-20T16:29:04;6.25;;;3.35;;
22468;SDS011;11401;50.792;4.352;2022-11-20T16:31:32;4.80;;;2.78;;
22468;SDS011;11401;50.792;4.352;2022-11-20T16:34:00;5.75;;;2.45;;